Ana Sayfa
METAR-TAF:

METAR-TAF

Havaalanları :

Meriden-Markham Municipal Airport

Meriden, Connecticut, Amerika Birleşik Devletleri

Enlem: 41-30-35N, Boylam: 072-49-40W, yükseklik: 31 m

Güncel hava durumu gözlemi

Rapor saat 04:53 UTC de 51 dakika önce yapıldı.
Rüzgar kuzey/kuzeybatıdan 11 kt ve 18 kt'a kadar ani rüzgarlar
Sıcaklık 6°C
Nem 75%
Basınç 1001 hPa
Görüş mesafesi: 16.1 km
3400 ft yükseklikte çok bulutlu
hafif yağmur

METAR: KMMK 030453Z AUTO 34011G18KT 10SM -RA OVC034 06/02 A2956 RMK AO2 SLP011 P0001 T00560022 401330028

Saat: 01:44 (05:44 UTC)


TAF: eksik

4.000'den fazla havaalanı için hava durumu gözlemleri ve tahminleri (METAR ve TAF raporları).

Kullanılabilir istasyonlar harita üzerinde sarı ve kırmızı noktalarla gösterilir.

İstasyonun adını görmek için fareyi noktanın üzerinde gezdirin.

Sonrasında hava gözlem ve tahminlerini görmek için tıklayın.

Haritayı değiştirmek için: yaklaştırmak için siyah artı işaretli yeşil düğmeye ve uzaklaştırmak için de eksi işaretli düğmeye hızla tıklayın; bitişik haritalar için yeşil okları kullanın.


METAR-TAF: